El Dorado, Kansas
Current Conditions -  °F | °C
As of 2:55 PM on Friday 31 Oct 2014 (Local Time) from KEQA Reporting Station
Clear Clear  
Wind Chill: 50°   Ceiling: Unl
Heat Index: 50°   Visibility: 10mi
Dew Point: 18°   Wind: 15mph
Humidity: 28%   Direction: 30°NNE
Pressure: 30.43"   Gusts: 20mph
Location:  37.82°N, 96.85°W
Report Text: KEQA 311955Z AUTO 03013G17KT 10SM CLR 10/M08 A3043 RMK AO2
Loading
Personal Weather Stations






























Interactive Weather Map
Tropical Storm Tracking
New forecast layout! Learn more

10-Day Weather Forecast

Advertisements
Track Severe Weather on mobile